^^
B2 Weather Station Historical Data
Daily Summary for November 10, 2018 Units:  English    Metric   Both
Daily Weekly Monthly Yearly Custom
  High: Low: Average:
Temperature: 33.4 °F 18.1 °F 25.1 °F
Dew Point: 23.8 °F 12.5 °F 18.7 °F
Humidity: 88% 61% 77%
Wind Speed: 26.5mph 0.0mph 8.1mph
Wind Gust: 13.0mph - -
Wind- - WSW
Pressure: 30.46 in 30.27 in -
Precipitation: 0.00 in    
Historical Graphs
 
 
Tabular Data for November 10, 2018
Time Temperature Dew Point Pressure Wind Wind Speed Wind Gust Humidity Rainfall Rate (Hourly) solar
00:04 19.4 °F 12.5 °F 30.27 in North 13.8 mph 10.8 mph 74% 0.00 in 0.00 W/m2
00:09 19.4 °F 12.5 °F 30.27 in North 15.0 mph 7.8 mph 74% 0.00 in 0.00 W/m2
00:14 19.5 °F 12.9 °F 30.27 in WNW 16.1 mph 8.8 mph 75% 0.00 in 0.00 W/m2
00:19 19.6 °F 13.0 °F 30.27 in North 26.5 mph 11.2 mph 75% 0.00 in 0.00 W/m2
00:24 19.5 °F 13.2 °F 30.27 in North 15.0 mph 6.4 mph 76% 0.00 in 0.00 W/m2
00:29 19.6 °F 13.3 °F 30.27 in North 12.7 mph 7.5 mph 76% 0.00 in 0.00 W/m2
00:34 19.7 °F 13.7 °F 30.27 in West 12.7 mph 6.6 mph 77% 0.00 in 0.00 W/m2
00:39 19.7 °F 13.7 °F 30.27 in North 11.5 mph 9.6 mph 77% 0.00 in 0.00 W/m2
00:44 19.8 °F 14.0 °F 30.27 in WNW 15.0 mph 7.1 mph 78% 0.00 in 0.00 W/m2
00:49 19.8 °F 14.0 °F 30.27 in North 19.6 mph 11.6 mph 78% 0.00 in 0.00 W/m2
00:54 20.0 °F 14.2 °F 30.27 in North 13.8 mph 11.8 mph 78% 0.00 in 0.00 W/m2
00:59 20.1 °F 14.3 °F 30.27 in WNW 11.5 mph 8.9 mph 78% 0.00 in 0.00 W/m2
01:04 20.2 °F 14.4 °F 30.28 in North 19.6 mph 11.4 mph 78% 0.00 in 0.00 W/m2
01:09 20.3 °F 14.5 °F 30.28 in WSW 11.5 mph 6.0 mph 78% 0.00 in 0.00 W/m2
01:14 20.3 °F 14.5 °F 30.27 in North 18.0 mph 7.5 mph 78% 0.00 in 0.00 W/m2
01:19 20.4 °F 14.6 °F 30.28 in SW 15.0 mph 8.2 mph 78% 0.00 in 0.00 W/m2
01:24 20.5 °F 14.7 °F 30.28 in WSW 11.5 mph 8.3 mph 78% 0.00 in 0.00 W/m2
01:29 20.6 °F 14.8 °F 30.28 in SW 16.1 mph 6.9 mph 78% 0.00 in 0.00 W/m2
01:34 20.6 °F 15.1 °F 30.28 in SSW 11.5 mph 5.9 mph 79% 0.00 in 0.00 W/m2
01:39 20.6 °F 15.1 °F 30.28 in SW 16.1 mph 9.2 mph 79% 0.00 in 0.00 W/m2
01:44 20.6 °F 15.1 °F 30.29 in WSW 19.6 mph 10.7 mph 79% 0.00 in 0.00 W/m2
01:49 20.6 °F 15.1 °F 30.29 in NW 13.8 mph 7.9 mph 79% 0.00 in 0.00 W/m2
01:54 20.6 °F 15.1 °F 30.29 in North 14.0 mph 8.7 mph 79% 0.00 in 0.00 W/m2
01:59 20.6 °F 15.1 °F 30.29 in North 15.0 mph 10.3 mph 79% 0.00 in 0.00 W/m2
02:04 20.6 °F 15.1 °F 30.29 in North 16.1 mph 8.1 mph 79% 0.00 in 0.00 W/m2
02:09 20.6 °F 15.1 °F 30.29 in WNW 17.3 mph 8.9 mph 79% 0.00 in 0.00 W/m2
02:14 20.5 °F 15.0 °F 30.30 in WNW 13.8 mph 5.4 mph 79% 0.00 in 0.00 W/m2
02:19 20.5 °F 14.7 °F 30.30 in WSW 18.0 mph 8.9 mph 78% 0.00 in 0.00 W/m2
02:24 20.5 °F 14.7 °F 30.30 in North 12.7 mph 9.6 mph 78% 0.00 in 0.00 W/m2
02:29 20.5 °F 14.4 °F 30.30 in NW 10.4 mph 7.5 mph 77% 0.00 in 0.00 W/m2
02:34 20.4 °F 14.6 °F 30.30 in West 17.3 mph 9.2 mph 78% 0.00 in 0.00 W/m2
02:39 20.4 °F 14.6 °F 30.30 in North 17.3 mph 11.3 mph 78% 0.00 in 0.00 W/m2
02:44 20.4 °F 14.6 °F 30.30 in West 15.0 mph 9.9 mph 78% 0.00 in 0.00 W/m2
02:49 20.5 °F 14.7 °F 30.30 in North 13.0 mph 8.5 mph 78% 0.00 in 0.00 W/m2
02:54 20.6 °F 14.8 °F 30.30 in West 18.4 mph 12.5 mph 78% 0.00 in 0.00 W/m2
02:59 20.7 °F 14.9 °F 30.30 in North 13.0 mph 9.0 mph 78% 0.00 in 0.00 W/m2
03:04 20.7 °F 14.9 °F 30.30 in North 15.0 mph 9.5 mph 78% 0.00 in 0.00 W/m2
03:09 20.6 °F 14.5 °F 30.30 in WSW 19.6 mph 10.4 mph 77% 0.00 in 0.00 W/m2
03:14 20.5 °F 14.4 °F 30.31 in North 15.0 mph 10.6 mph 77% 0.00 in 0.00 W/m2
03:19 20.3 °F 14.5 °F 30.31 in WSW 18.4 mph 7.4 mph 78% 0.00 in 0.00 W/m2
03:24 20.3 °F 14.5 °F 30.31 in North 15.0 mph 9.2 mph 78% 0.00 in 0.00 W/m2
03:29 20.3 °F 14.5 °F 30.31 in North 19.6 mph 9.6 mph 78% 0.00 in 0.00 W/m2
03:34 20.3 °F 14.5 °F 30.31 in North 16.1 mph 6.8 mph 78% 0.00 in 0.00 W/m2
03:39 20.3 °F 14.5 °F 30.31 in WNW 13.0 mph 7.8 mph 78% 0.00 in 0.00 W/m2
03:44 20.3 °F 14.5 °F 30.32 in WNW 18.4 mph 9.7 mph 78% 0.00 in 0.00 W/m2
03:49 20.3 °F 14.5 °F 30.32 in North 17.3 mph 7.8 mph 78% 0.00 in 0.00 W/m2
03:54 20.2 °F 14.1 °F 30.32 in NW 18.4 mph 13.0 mph 77% 0.00 in 0.00 W/m2
03:59 20.2 °F 14.1 °F 30.33 in NW 19.6 mph 7.2 mph 77% 0.00 in 0.00 W/m2
04:04 20.1 °F 14.3 °F 30.33 in NW 12.7 mph 9.7 mph 78% 0.00 in 0.00 W/m2
04:09 20.0 °F 14.2 °F 30.33 in North 18.4 mph 10.0 mph 78% 0.00 in 0.00 W/m2
04:14 20.0 °F 14.2 °F 30.33 in North 18.4 mph 10.8 mph 78% 0.00 in 0.00 W/m2
04:19 19.9 °F 14.1 °F 30.34 in North 17.3 mph 8.6 mph 78% 0.00 in 0.00 W/m2
04:24 19.9 °F 14.1 °F 30.34 in North 16.1 mph 10.1 mph 78% 0.00 in 0.00 W/m2
04:29 19.9 °F 14.4 °F 30.34 in North 16.1 mph 7.5 mph 79% 0.00 in 0.00 W/m2
04:34 19.8 °F 14.3 °F 30.34 in North 18.4 mph 8.7 mph 79% 0.00 in 0.00 W/m2
04:39 19.7 °F 14.2 °F 30.34 in SW 15.0 mph 9.3 mph 79% 0.00 in 0.00 W/m2
04:44 19.5 °F 14.0 °F 30.34 in North 10.4 mph 6.3 mph 79% 0.00 in 0.00 W/m2
04:49 19.4 °F 13.9 °F 30.34 in WNW 18.4 mph 10.0 mph 79% 0.00 in 0.00 W/m2
04:54 19.2 °F 13.8 °F 30.35 in WSW 10.4 mph 8.1 mph 79% 0.00 in 0.00 W/m2
04:59 19.1 °F 13.9 °F 30.35 in NW 19.6 mph 7.7 mph 80% 0.00 in 0.00 W/m2
05:04 19.0 °F 13.8 °F 30.35 in NNW 19.6 mph 6.7 mph 80% 0.00 in 0.00 W/m2
05:09 18.9 °F 13.7 °F 30.35 in WSW 11.5 mph 6.9 mph 80% 0.00 in 0.00 W/m2
05:14 18.8 °F 13.7 °F 30.35 in NW 8.1 mph 3.4 mph 80% 0.00 in 0.00 W/m2
05:19 18.7 °F 13.6 °F 30.35 in North 11.5 mph 7.1 mph 80% 0.00 in 0.00 W/m2
05:24 18.6 °F 13.5 °F 30.36 in WSW 11.5 mph 8.0 mph 80% 0.00 in 0.00 W/m2
05:29 18.6 °F 13.5 °F 30.36 in WNW 10.4 mph 4.4 mph 80% 0.00 in 0.00 W/m2
05:34 18.6 °F 13.7 °F 30.36 in North 11.5 mph 4.9 mph 81% 0.00 in 0.00 W/m2
05:39 18.5 °F 13.6 °F 30.36 in West 11.5 mph 5.9 mph 81% 0.00 in 0.00 W/m2
05:44 18.4 °F 13.5 °F 30.36 in North 11.5 mph 6.4 mph 81% 0.00 in 0.00 W/m2
05:49 18.4 °F 13.5 °F 30.36 in WSW 11.5 mph 6.5 mph 81% 0.00 in 0.00 W/m2
05:54 18.4 °F 13.5 °F 30.37 in WSW 13.8 mph 7.0 mph 81% 0.00 in 0.00 W/m2
05:59 18.4 °F 13.5 °F 30.37 in North 10.4 mph 8.2 mph 81% 0.00 in 0.00 W/m2
06:04 18.4 °F 13.5 °F 30.37 in WSW 11.5 mph 4.4 mph 81% 0.00 in 0.00 W/m2
06:09 18.3 °F 13.4 °F 30.37 in West 11.5 mph 6.9 mph 81% 0.00 in 0.00 W/m2
06:14 18.3 °F 13.4 °F 30.37 in WSW 11.5 mph 7.8 mph 81% 0.00 in 0.00 W/m2
06:19 18.3 °F 13.7 °F 30.38 in North 12.0 mph 8.4 mph 82% 0.00 in 0.00 W/m2
06:24 18.2 °F 13.6 °F 30.38 in WNW 10.4 mph 5.7 mph 82% 0.00 in 0.00 W/m2
06:29 18.2 °F 13.6 °F 30.38 in North 11.5 mph 5.1 mph 82% 0.00 in 0.00 W/m2
06:34 18.1 °F 13.5 °F 30.38 in WSW 11.5 mph 5.4 mph 82% 0.00 in 5.00 W/m2
06:39 18.1 °F 13.5 °F 30.39 in North 10.4 mph 5.7 mph 82% 0.00 in 7.00 W/m2
06:44 18.1 °F 13.5 °F 30.39 in WNW 12.7 mph 6.6 mph 82% 0.00 in 11.00 W/m2
06:49 18.2 °F 13.6 °F 30.39 in West 10.4 mph 7.8 mph 82% 0.00 in 12.00 W/m2
06:54 18.2 °F 13.6 °F 30.39 in WSW 9.2 mph 5.0 mph 82% 0.00 in 18.00 W/m2
06:59 18.2 °F 13.6 °F 30.39 in North 11.5 mph 5.5 mph 82% 0.00 in 25.00 W/m2
07:04 18.3 °F 13.7 °F 30.40 in WNW 6.9 mph 1.9 mph 82% 0.00 in 35.00 W/m2
07:09 18.4 °F 13.8 °F 30.40 in North 11.5 mph 5.0 mph 82% 0.00 in 46.00 W/m2
07:14 18.4 °F 13.8 °F 30.41 in West 10.4 mph 5.8 mph 82% 0.00 in 54.00 W/m2
07:19 18.5 °F 13.9 °F 30.41 in North 10.4 mph 7.0 mph 82% 0.00 in 69.00 W/m2
07:24 18.6 °F 14.0 °F 30.41 in WSW 10.4 mph 5.7 mph 82% 0.00 in 83.00 W/m2
07:29 18.8 °F 14.2 °F 30.41 in North 11.5 mph 8.0 mph 82% 0.00 in 98.00 W/m2
07:34 18.9 °F 14.3 °F 30.41 in West 10.4 mph 5.9 mph 82% 0.00 in 114.00 W/m2
07:39 18.9 °F 14.3 °F 30.41 in West 6.0 mph 6.0 mph 82% 0.00 in 114.00 W/m2
07:44 19.2 °F 14.6 °F 30.41 in WNW 16.1 mph 9.6 mph 82% 0.00 in 149.00 W/m2
07:49 19.3 °F 14.4 °F 30.42 in WSW 12.7 mph 6.1 mph 81% 0.00 in 162.00 W/m2
07:54 19.5 °F 14.6 °F 30.42 in North 15.0 mph 6.0 mph 81% 0.00 in 179.00 W/m2
07:59 19.7 °F 14.5 °F 30.43 in West 16.1 mph 7.9 mph 80% 0.00 in 199.00 W/m2
08:04 20.0 °F 15.1 °F 30.42 in WNW 10.4 mph 5.4 mph 81% 0.00 in 216.00 W/m2
08:09 20.2 °F 15.0 °F 30.42 in SW 11.5 mph 7.0 mph 80% 0.00 in 234.00 W/m2
08:14 20.2 °F 15.0 °F 30.42 in North 18.0 mph 8.0 mph 80% 0.00 in 251.00 W/m2
08:19 20.3 °F 14.8 °F 30.42 in NW 15.0 mph 6.1 mph 79% 0.00 in 265.00 W/m2
08:24 20.6 °F 15.4 °F 30.42 in North 15.0 mph 9.8 mph 80% 0.00 in 278.00 W/m2
08:29 20.7 °F 15.2 °F 30.43 in North 16.1 mph 7.2 mph 79% 0.00 in 288.00 W/m2
08:34 20.8 °F 15.3 °F 30.43 in WSW 9.2 mph 6.3 mph 79% 0.00 in 302.00 W/m2
08:39 20.9 °F 15.1 °F 30.43 in West 12.7 mph 8.1 mph 78% 0.00 in 315.00 W/m2
08:44 21.2 °F 15.4 °F 30.43 in North 13.8 mph 6.5 mph 78% 0.00 in 327.00 W/m2
08:49 21.4 °F 15.6 °F 30.43 in NW 11.5 mph 6.0 mph 78% 0.00 in 338.00 W/m2
08:54 21.5 °F 15.4 °F 30.44 in WSW 11.5 mph 7.6 mph 77% 0.00 in 350.00 W/m2
08:59 21.7 °F 15.6 °F 30.44 in West 11.5 mph 4.8 mph 77% 0.00 in 360.00 W/m2
09:04 22.1 °F 16.0 °F 30.44 in North 13.8 mph 7.6 mph 77% 0.00 in 373.00 W/m2
09:09 22.2 °F 16.1 °F 30.44 in West 9.2 mph 5.5 mph 77% 0.00 in 383.00 W/m2
09:14 22.5 °F 16.4 °F 30.44 in North 9.0 mph 4.6 mph 77% 0.00 in 394.00 W/m2
09:19 22.7 °F 16.3 °F 30.44 in North 10.4 mph 6.1 mph 76% 0.00 in 406.00 W/m2
09:24 23.0 °F 16.6 °F 30.44 in North 9.2 mph 4.8 mph 76% 0.00 in 413.00 W/m2
09:29 23.3 °F 16.5 °F 30.45 in WSW 9.2 mph 6.0 mph 75% 0.00 in 424.00 W/m2
09:34 23.6 °F 16.8 °F 30.45 in WNW 10.4 mph 6.4 mph 75% 0.00 in 431.00 W/m2
09:39 23.9 °F 17.1 °F 30.44 in North 9.2 mph 5.2 mph 75% 0.00 in 438.00 W/m2
09:44 24.2 °F 17.4 °F 30.44 in North 6.9 mph 5.9 mph 75% 0.00 in 448.00 W/m2
09:49 24.5 °F 17.4 °F 30.45 in WSW 9.2 mph 5.9 mph 74% 0.00 in 457.00 W/m2
09:54 24.7 °F 17.3 °F 30.45 in West 9.2 mph 5.4 mph 73% 0.00 in 464.00 W/m2
09:59 25.1 °F 18.0 °F 30.45 in North 8.1 mph 4.4 mph 74% 0.00 in 471.00 W/m2
10:04 25.4 °F 17.9 °F 30.45 in North 8.1 mph 2.4 mph 73% 0.00 in 480.00 W/m2
10:09 25.5 °F 17.7 °F 30.45 in West 11.5 mph 5.4 mph 72% 0.00 in 490.00 W/m2
10:14 25.6 °F 17.8 °F 30.45 in NW 6.9 mph 5.8 mph 72% 0.00 in 496.00 W/m2
10:19 25.9 °F 18.1 °F 30.45 in WSW 10.0 mph 6.0 mph 72% 0.00 in 503.00 W/m2
10:24 26.1 °F 18.3 °F 30.45 in WSW 5.0 mph 6.2 mph 72% 0.00 in 508.00 W/m2
10:29 26.3 °F 18.5 °F 30.45 in NW 8.1 mph 4.6 mph 72% 0.00 in 512.00 W/m2
10:34 26.8 °F 19.0 °F 30.45 in SW 6.0 mph 4.0 mph 72% 0.00 in 517.00 W/m2
10:39 26.9 °F 18.7 °F 30.45 in North 5.8 mph 2.5 mph 71% 0.00 in 520.00 W/m2
10:44 27.0 °F 18.5 °F 30.45 in North 6.0 mph 4.6 mph 70% 0.00 in 526.00 W/m2
10:49 27.0 °F 18.2 °F 30.46 in SW 6.9 mph 4.2 mph 69% 0.00 in 529.00 W/m2
10:54 27.0 °F 18.5 °F 30.45 in North 11.5 mph 5.7 mph 70% 0.00 in 534.00 W/m2
10:59 27.5 °F 19.3 °F 30.45 in West 6.9 mph 5.8 mph 71% 0.00 in 534.00 W/m2
11:04 27.6 °F 19.1 °F 30.45 in West 9.2 mph 6.3 mph 70% 0.00 in 540.00 W/m2
11:09 27.7 °F 19.2 °F 30.45 in WNW 6.9 mph 4.3 mph 70% 0.00 in 540.00 W/m2
11:14 27.9 °F 19.0 °F 30.45 in North 11.5 mph 6.0 mph 69% 0.00 in 541.00 W/m2
11:19 28.3 °F 19.8 °F 30.45 in WSW 5.8 mph 2.3 mph 70% 0.00 in 540.00 W/m2
11:24 28.9 °F 20.0 °F 30.45 in West 9.2 mph 5.5 mph 69% 0.00 in 545.00 W/m2
11:29 28.9 °F 19.7 °F 30.45 in West 9.2 mph 3.7 mph 68% 0.00 in 545.00 W/m2
11:34 28.7 °F 19.1 °F 30.45 in WSW 11.5 mph 7.0 mph 67% 0.00 in 545.00 W/m2
11:39 28.8 °F 19.6 °F 30.45 in North 6.9 mph 2.6 mph 68% 0.00 in 545.00 W/m2
11:44 29.1 °F 20.5 °F 30.45 in SW 5.0 mph 2.9 mph 70% 0.00 in 541.00 W/m2
11:49 29.5 °F 20.6 °F 30.44 in North 6.9 mph 3.9 mph 69% 0.00 in 541.00 W/m2
11:54 29.6 °F 20.7 °F 30.45 in North 9.2 mph 3.7 mph 69% 0.00 in 543.00 W/m2
11:59 29.7 °F 20.1 °F 30.44 in North 6.0 mph 3.3 mph 67% 0.00 in 540.00 W/m2
12:04 29.9 °F 20.3 °F 30.44 in North 6.9 mph 5.3 mph 67% 0.00 in 531.00 W/m2
12:09 30.2 °F 20.9 °F 30.44 in North 6.9 mph 4.2 mph 68% 0.00 in 534.00 W/m2
12:14 30.3 °F 20.6 °F 30.44 in WNW 8.1 mph 3.0 mph 67% 0.00 in 534.00 W/m2
12:19 30.3 °F 20.3 °F 30.44 in North 6.9 mph 2.2 mph 66% 0.00 in 529.00 W/m2
12:24 30.5 °F 20.8 °F 30.43 in West 3.5 mph 1.8 mph 67% 0.00 in 526.00 W/m2
12:29 30.7 °F 20.3 °F 30.43 in NW 5.8 mph 2.3 mph 65% 0.00 in 520.00 W/m2
12:34 30.7 °F 20.3 °F 30.43 in West 6.0 mph 4.0 mph 65% 0.00 in 515.00 W/m2
12:39 30.9 °F 20.5 °F 30.43 in SSW 5.8 mph 4.1 mph 65% 0.00 in 512.00 W/m2
12:44 31.0 °F 19.9 °F 30.43 in North 8.0 mph 1.5 mph 63% 0.00 in 508.00 W/m2
12:49 31.0 °F 19.9 °F 30.43 in WSW 5.8 mph 3.4 mph 63% 0.00 in 499.00 W/m2
12:54 31.4 °F 20.2 °F 30.43 in North 4.6 mph 1.1 mph 63% 0.00 in 482.00 W/m2
12:59 31.7 °F 20.9 °F 30.43 in WSW 4.6 mph 2.9 mph 64% 0.00 in 485.00 W/m2
13:04 31.8 °F 21.0 °F 30.43 in NW 6.9 mph 3.9 mph 64% 0.00 in 475.00 W/m2
13:09 31.8 °F 21.0 °F 30.43 in SSW 8.1 mph 3.8 mph 64% 0.00 in 478.00 W/m2
13:14 31.9 °F 20.7 °F 30.43 in WNW 6.9 mph 4.1 mph 63% 0.00 in 450.00 W/m2
13:19 31.9 °F 20.7 °F 30.43 in North 3.5 mph 2.0 mph 63% 0.00 in 462.00 W/m2
13:24 32.0 °F 20.4 °F 30.42 in West 6.9 mph 1.5 mph 62% 0.00 in 457.00 W/m2
13:29 32.4 °F 21.6 °F 30.42 in North 4.0 mph 4.0 mph 64% 0.00 in 388.00 W/m2
13:34 32.3 °F 20.7 °F 30.42 in North 7.0 mph 6.2 mph 62% 0.00 in 424.00 W/m2
13:39 32.1 °F 20.2 °F 30.42 in NW 5.8 mph 3.5 mph 61% 0.00 in 425.00 W/m2
13:44 32.1 °F 20.5 °F 30.42 in WNW 2.3 mph 1.6 mph 62% 0.00 in 415.00 W/m2
13:49 32.2 °F 21.0 °F 30.42 in SSW 5.8 mph 4.1 mph 63% 0.00 in 313.00 W/m2
13:54 32.5 °F 21.7 °F 30.41 in WNW 5.0 mph 3.3 mph 64% 0.00 in 352.00 W/m2
13:59 32.5 °F 20.5 °F 30.41 in NW 3.5 mph 1.0 mph 61% 0.00 in 376.00 W/m2
14:04 32.5 °F 20.5 °F 30.41 in NW 1.2 mph   61% 0.00 in 357.00 W/m2
14:09 32.8 °F 21.2 °F 30.40 in NW 3.5 mph 2.4 mph 62% 0.00 in 332.00 W/m2
14:14 32.9 °F 21.7 °F 30.40 in SW 3.0 mph 1.5 mph 63% 0.00 in 306.00 W/m2
14:19 33.0 °F 21.0 °F 30.40 in North 3.0 mph 0.5 mph 61% 0.00 in 267.00 W/m2
14:24 33.2 °F 22.0 °F 30.40 in SSW 4.6 mph 1.7 mph 63% 0.00 in 308.00 W/m2
14:29 33.3 °F 22.1 °F 30.40 in South 3.5 mph 1.6 mph 63% 0.00 in 327.00 W/m2
14:34 33.4 °F 21.8 °F 30.39 in South 5.0 mph 1.4 mph 62% 0.00 in 341.00 W/m2
14:39 33.4 °F 21.8 °F 30.39 in SSW 5.0 mph 2.7 mph 62% 0.00 in 308.00 W/m2
14:44 33.2 °F 21.6 °F 30.39 in SSW 1.2 mph 0.5 mph 62% 0.00 in 292.00 W/m2
14:49 33.0 °F 21.8 °F 30.39 in South 3.5 mph 3.7 mph 63% 0.00 in 221.00 W/m2
14:54 32.5 °F 21.3 °F 30.39 in South 4.6 mph 3.6 mph 63% 0.00 in 258.00 W/m2
14:59 32.1 °F 21.3 °F 30.39 in North 4.6 mph 1.8 mph 64% 0.00 in 213.00 W/m2
15:04 31.8 °F 21.4 °F 30.39 in SSW 4.6 mph 2.2 mph 65% 0.00 in 179.00 W/m2
15:09 31.6 °F 21.2 °F 30.39 in South 3.5 mph 1.8 mph 65% 0.00 in 162.00 W/m2
15:14 31.5 °F 21.1 °F 30.39 in South 4.6 mph 2.6 mph 65% 0.00 in 149.00 W/m2
15:19 31.3 °F 21.3 °F 30.39 in South 4.6 mph 4.4 mph 66% 0.00 in 137.00 W/m2
15:24 31.0 °F 21.3 °F 30.39 in SSW 5.8 mph 2.1 mph 67% 0.00 in 121.00 W/m2
15:29 31.0 °F 21.3 °F 30.39 in SSW 3.5 mph 1.6 mph 67% 0.00 in 116.00 W/m2
15:34 31.0 °F 21.0 °F 30.39 in SSW 3.5 mph 1.8 mph 66% 0.00 in 95.00 W/m2
15:39 30.9 °F 20.9 °F 30.39 in SSW 4.6 mph 1.1 mph 66% 0.00 in 86.00 W/m2
15:44 31.0 °F 21.3 °F 30.39 in SSW 4.6 mph 2.5 mph 67% 0.00 in 69.00 W/m2
15:49 31.0 °F 21.3 °F 30.39 in SSW 5.8 mph 2.3 mph 67% 0.00 in 60.00 W/m2
15:54 30.8 °F 21.1 °F 30.39 in SSW 4.0 mph 3.5 mph 67% 0.00 in 37.00 W/m2
15:59 30.6 °F 21.3 °F 30.39 in SSW 3.5 mph 0.6 mph 68% 0.00 in 35.00 W/m2
16:04 30.4 °F 21.4 °F 30.39 in SSW 2.3 mph 1.0 mph 69% 0.00 in 33.00 W/m2
16:09 30.4 °F 21.1 °F 30.39 in SSW 5.8 mph 0.5 mph 68% 0.00 in 28.00 W/m2
16:14 30.4 °F 21.4 °F 30.39 in SSW 4.0 mph 2.2 mph 69% 0.00 in 23.00 W/m2
16:19 30.4 °F 21.4 °F 30.39 in South 4.6 mph 3.3 mph 69% 0.00 in 19.00 W/m2
16:24 30.4 °F 21.8 °F 30.39 in South 3.5 mph 2.0 mph 70% 0.00 in 14.00 W/m2
16:29 30.3 °F 21.7 °F 30.39 in SSW 3.5 mph 2.2 mph 70% 0.00 in 9.00 W/m2
16:34 30.1 °F 21.5 °F 30.39 in South 2.3 mph 0.3 mph 70% 0.00 in 0.00 W/m2
16:39 30.0 °F 21.7 °F 30.39 in SSW 4.0 mph 4.0 mph 71% 0.00 in 0.00 W/m2
16:44 30.0 °F 21.7 °F 30.39 in SSW 4.0 mph 4.0 mph 71% 0.00 in 0.00 W/m2
16:49 29.5 °F 21.3 °F 30.38 in SSW 3.5 mph 2.0 mph 71% 0.00 in 0.00 W/m2
16:54 29.3 °F 21.4 °F 30.38 in SSW 4.6 mph 2.3 mph 72% 0.00 in 0.00 W/m2
16:59 29.1 °F 21.2 °F 30.38 in SSW 3.5 mph 1.5 mph 72% 0.00 in 0.00 W/m2
17:04 29.0 °F 21.4 °F 30.38 in SSW 3.0 mph 0.3 mph 73% 0.00 in 0.00 W/m2
17:09 28.8 °F 21.2 °F 30.37 in SSW 3.5 mph 1.2 mph 73% 0.00 in 0.00 W/m2
17:14 28.7 °F 21.5 °F 30.37 in South 3.5 mph 1.3 mph 74% 0.00 in 0.00 W/m2
17:19 28.6 °F 21.7 °F 30.37 in South 4.0 mph 2.4 mph 75% 0.00 in 0.00 W/m2
17:24 28.5 °F 21.9 °F 30.37 in South 3.5 mph 1.8 mph 76% 0.00 in 0.00 W/m2
17:29 28.4 °F 22.1 °F 30.37 in South 3.0 mph 1.6 mph 77% 0.00 in 0.00 W/m2
17:34 28.4 °F 22.4 °F 30.38 in South 2.3 mph 1.1 mph 78% 0.00 in 0.00 W/m2
17:39 28.2 °F 22.2 °F 30.38 in SSW 3.5 mph 0.4 mph 78% 0.00 in 0.00 W/m2
17:44 28.1 °F 22.1 °F 30.39 in SSW 1.2 mph 0.4 mph 78% 0.00 in 0.00 W/m2
17:49 28.1 °F 22.1 °F 30.38 in SSW 2.3 mph   78% 0.00 in 0.00 W/m2
17:54 28.0 °F 21.7 °F 30.39 in SSW 1.2 mph 0.1 mph 77% 0.00 in 0.00 W/m2
17:59 28.0 °F 21.7 °F 30.38 in SSW 2.3 mph 1.3 mph 77% 0.00 in 0.00 W/m2
18:04 28.0 °F 22.0 °F 30.38 in South 3.5 mph 2.1 mph 78% 0.00 in 0.00 W/m2
18:09 27.8 °F 22.1 °F 30.38 in South 3.5 mph 2.2 mph 79% 0.00 in 0.00 W/m2
18:14 27.8 °F 22.4 °F 30.37 in South 3.5 mph 1.7 mph 80% 0.00 in 0.00 W/m2
18:19 27.9 °F 22.5 °F 30.37 in SSE 3.5 mph 2.2 mph 80% 0.00 in 0.00 W/m2
18:24 28.0 °F 22.9 °F 30.38 in SSE 1.2 mph 1.0 mph 81% 0.00 in 0.00 W/m2
18:29 28.1 °F 23.0 °F 30.38 in South 3.5 mph 2.6 mph 81% 0.00 in 0.00 W/m2
18:34 28.2 °F 23.4 °F 30.37 in South 2.3 mph 1.7 mph 82% 0.00 in 0.00 W/m2
18:39 28.3 °F 23.5 °F 30.37 in SSE 3.5 mph 2.6 mph 82% 0.00 in 0.00 W/m2
18:44 28.3 °F 23.5 °F 30.36 in SSE 5.0 mph 3.8 mph 82% 0.00 in 0.00 W/m2
18:49 28.4 °F 23.6 °F 30.36 in South 6.9 mph 4.3 mph 82% 0.00 in 0.00 W/m2
18:54 28.3 °F 23.5 °F 30.36 in SSE 5.8 mph 4.8 mph 82% 0.00 in 0.00 W/m2
18:59 28.2 °F 23.4 °F 30.36 in SSE 3.5 mph 2.4 mph 82% 0.00 in 0.00 W/m2
19:04 28.1 °F 23.3 °F 30.37 in SSE 3.5 mph 1.8 mph 82% 0.00 in 0.00 W/m2
19:09 28.0 °F 23.5 °F 30.37 in SSE 1.2 mph 0.8 mph 83% 0.00 in 0.00 W/m2
19:14 27.9 °F 23.4 °F 30.37 in SSE 3.5 mph 1.7 mph 83% 0.00 in 0.00 W/m2
19:19 27.8 °F 23.3 °F 30.37 in SSE 2.3 mph 1.4 mph 83% 0.00 in 0.00 W/m2
19:24 27.7 °F 23.2 °F 30.37 in SSE 1.2 mph   83% 0.00 in 0.00 W/m2
19:29 27.6 °F 23.1 °F 30.37 in SSE 2.3 mph 0.8 mph 83% 0.00 in 0.00 W/m2
19:34 27.3 °F 22.8 °F 30.36 in SSE 2.3 mph 1.5 mph 83% 0.00 in 0.00 W/m2
19:39 26.9 °F 22.4 °F 30.37 in SSE 1.2 mph   83% 0.00 in 0.00 W/m2
19:44 26.6 °F 22.1 °F 30.37 in SSE 1.0 mph 0.1 mph 83% 0.00 in 0.00 W/m2
19:49 26.7 °F 22.5 °F 30.37 in SSE 2.3 mph 0.2 mph 84% 0.00 in 0.00 W/m2
19:54 26.8 °F 22.6 °F 30.37 in Calm     84% 0.00 in 0.00 W/m2
19:59 26.8 °F 22.6 °F 30.37 in Calm     84% 0.00 in 0.00 W/m2
20:04 26.7 °F 22.5 °F 30.37 in Calm     84% 0.00 in 0.00 W/m2
20:09 26.7 °F 22.5 °F 30.37 in SSE 2.3 mph 0.9 mph 84% 0.00 in 0.00 W/m2
20:14 26.3 °F 21.8 °F 30.36 in SSE 2.3 mph 1.6 mph 83% 0.00 in 0.00 W/m2
20:19 26.1 °F 21.9 °F 30.36 in SSE 2.3 mph 1.1 mph 84% 0.00 in 0.00 W/m2
20:24 26.0 °F 22.1 °F 30.36 in SSE 1.2 mph 0.2 mph 85% 0.00 in 0.00 W/m2
20:29 25.9 °F 22.0 °F 30.37 in SSE 2.3 mph 0.9 mph 85% 0.00 in 0.00 W/m2
20:34 25.9 °F 22.0 °F 30.36 in Calm     85% 0.00 in 0.00 W/m2
20:39 25.7 °F 21.8 °F 30.36 in SSE 2.0 mph 1.1 mph 85% 0.00 in 0.00 W/m2
20:44 25.5 °F 21.6 °F 30.36 in SSE 1.2 mph   85% 0.00 in 0.00 W/m2
20:49 25.6 °F 22.0 °F 30.36 in Calm     86% 0.00 in 0.00 W/m2
20:54 25.7 °F 22.1 °F 30.36 in SSE 2.3 mph 1.0 mph 86% 0.00 in 0.00 W/m2
20:59 25.9 °F 22.3 °F 30.37 in SSE 1.2 mph   86% 0.00 in 0.00 W/m2
21:04 26.0 °F 22.4 °F 30.37 in SSE 1.0 mph 0.4 mph 86% 0.00 in 0.00 W/m2
21:09 26.0 °F 22.4 °F 30.36 in SSE 1.2 mph   86% 0.00 in 0.00 W/m2
21:14 25.9 °F 22.3 °F 30.36 in Calm     86% 0.00 in 0.00 W/m2
21:19 25.7 °F 22.1 °F 30.36 in SSE 2.3 mph   86% 0.00 in 0.00 W/m2
21:24 25.9 °F 22.6 °F 30.37 in Calm     87% 0.00 in 0.00 W/m2
21:29 26.1 °F 22.8 °F 30.37 in Calm     87% 0.00 in 0.00 W/m2
21:34 26.3 °F 23.2 °F 30.37 in SSE 2.3 mph   88% 0.00 in 0.00 W/m2
21:39 26.5 °F 23.4 °F 30.37 in SSE 3.5 mph 1.0 mph 88% 0.00 in 0.00 W/m2
21:44 26.7 °F 23.4 °F 30.38 in SSE 2.3 mph 0.8 mph 87% 0.00 in 0.00 W/m2
21:49 26.8 °F 23.4 °F 30.38 in SSE 3.5 mph 2.1 mph 87% 0.00 in 0.00 W/m2
21:54 26.9 °F 23.8 °F 30.38 in SSE 2.3 mph 0.2 mph 88% 0.00 in 0.00 W/m2
21:59 26.9 °F 23.8 °F 30.38 in SSE 2.3 mph 1.2 mph 88% 0.00 in 0.00 W/m2
22:04 26.9 °F 23.5 °F 30.38 in South 2.3 mph 1.3 mph 87% 0.00 in 0.00 W/m2
22:09 26.9 °F 23.5 °F 30.38 in SSE 2.3 mph 1.2 mph 87% 0.00 in 0.00 W/m2
22:14 26.9 °F 23.5 °F 30.37 in South 3.5 mph 1.7 mph 87% 0.00 in 0.00 W/m2
22:19 26.8 °F 23.4 °F 30.37 in South 3.5 mph 1.9 mph 87% 0.00 in 0.00 W/m2
22:24 26.8 °F 23.4 °F 30.37 in South 3.5 mph 1.8 mph 87% 0.00 in 0.00 W/m2
22:29 26.9 °F 23.5 °F 30.37 in South 3.5 mph 1.8 mph 87% 0.00 in 0.00 W/m2
22:34 26.9 °F 23.5 °F 30.37 in SSE 4.0 mph 1.9 mph 87% 0.00 in 0.00 W/m2
22:39 26.9 °F 23.5 °F 30.37 in South 3.5 mph 0.8 mph 87% 0.00 in 0.00 W/m2
22:44 27.0 °F 23.6 °F 30.37 in South 4.6 mph 2.2 mph 87% 0.00 in 0.00 W/m2
22:49 27.1 °F 23.5 °F 30.37 in South 4.0 mph 2.8 mph 86% 0.00 in 0.00 W/m2
22:54 27.1 °F 23.5 °F 30.37 in South 3.5 mph 2.3 mph 86% 0.00 in 0.00 W/m2
22:59 27.2 °F 23.6 °F 30.37 in South 3.5 mph 2.0 mph 86% 0.00 in 0.00 W/m2
23:04 27.2 °F 23.6 °F 30.38 in South 3.5 mph 1.1 mph 86% 0.00 in 0.00 W/m2
23:09 27.1 °F 23.5 °F 30.38 in South 3.0 mph 2.1 mph 86% 0.00 in 0.00 W/m2
23:14 27.1 °F 23.5 °F 30.37 in SSE 4.6 mph 2.9 mph 86% 0.00 in 0.00 W/m2
23:19 27.1 °F 23.2 °F 30.38 in South 3.5 mph 2.3 mph 85% 0.00 in 0.00 W/m2
23:24 27.0 °F 23.4 °F 30.37 in SSE 5.8 mph 2.8 mph 86% 0.00 in 0.00 W/m2
23:29 27.1 °F 23.5 °F 30.37 in South 4.6 mph 3.5 mph 86% 0.00 in 0.00 W/m2
23:34 27.1 °F 23.5 °F 30.37 in SSE 3.5 mph 2.9 mph 86% 0.00 in 0.00 W/m2
23:39 27.0 °F 23.4 °F 30.37 in SSE 5.0 mph 3.6 mph 86% 0.00 in 0.00 W/m2
23:44 26.7 °F 23.1 °F 30.36 in SE 5.8 mph 3.4 mph 86% 0.00 in 0.00 W/m2
23:49 26.5 °F 23.2 °F 30.36 in SSE 4.0 mph 3.8 mph 87% 0.00 in 0.00 W/m2
23:54 26.5 °F 23.2 °F 30.36 in SE 5.8 mph 4.8 mph 87% 0.00 in 0.00 W/m2
23:59 26.4 °F 23.3 °F 30.35 in SE 8.1 mph 6.1 mph 88% 0.00 in 0.00 W/m2
Bourbonnais, Illinois, USA
Compliments of Weather Underground - 4 mb